Main page
METAR-TAF:

Airports :

London-Gatwick, England

Gatwick Airport

latitude: 51-09N, longitude: 000-11W, elevation: 62 m

Current weather observation

The report was made 23 minutes ago, at 09:20 UTC
Wind 7 kt from the South, varying between Southeast and West/Southwest
Temperature 14°C
Humidity 55%
Pressure 1027 hPa
Visibility 10 km or more
Few clouds at a height of 3800 ft

METAR: EGKK 040920Z 19007KT 130V240 9999 FEW038 14/05 Q1027

Time: 10:43 (09:43 UTC)

Forecast

The report was made 4 hours and 46 minutes ago, at 04:57 UTC
Forecast valid from 04 at 06 UTC to 05 at 12 UTC
Wind 8 kt from the South
Visibility 10 km or more
Few clouds at a height of 4500 ft
Probability 30%
from 05 at 02 UTC to 05 at 07 UTC
Visibility: 6000 m

TAF: EGKK 040457Z 0406/0512 19008KT 9999 FEW045 PROB30 0502/0507 6000

METAR-TAF

Weather observations and forecasts of more than 4000 airports (METAR and TAF reports).

The available stations are represented by yellow and red dots on the map.

Hover mouse over dot to see the name of the station.

Then click to see weather observations and forecasts.

To change the map : click on the green buttons with a black cross to zoom in, on the green button with a dash to zoom out, or on the green arrows for adjacent maps.


METAR-TAF: